Monroe County Airport Bloomington US
ICAO: KBMG
IATA: BMG
Category: Medium
Scheduled Services: No

Elevation: 846 ft
TransAlt. 18000 ft.

Airport Communications:
HULMAN APP/DEP:128.05
ASOS:110.2
CTAF:120.775
GND:121.9
TERRE HAUTE RDO:110.2
BLOOMINGTON TWR:120.775
UNICOM:122.95

KBMG Zoom In..

If you have problems with the map follow the link
https://www.worldairports.se/pages/airport.php?
ICAO=KBMG

Runways:

(A) RW 06 length 3798 ft width 100 ft
---- / hdg 64

(B) RW 17 length 6500 ft width 150 ft
---- / hdg 174

(C) RW 24 length 3798 ft width 100 ft
---- / hdg 244

(D) RW 35 length 6500 ft width 150 ft
ILS 108.30 / hdg 354

Location; KBMG
Day. 14 / Time. 16.53 Zulu
* Altimeter: 29.72
* Temperature: 04° c. 39.2°f.
* Wind from: 250° Speed 06 kn.
Dewpoint: 01° c.
Visibility: 10 Statute Miles.
Clouds: Overcast 1300 ft.

KBMG 141653Z 25006KT 10SM OVC013 04/01 A2972 RMK AO2 SLP068 T00440011


Wind From 250°
Speed 06 kn.

 
 
jpsmedia worldairports.se 2019   terms of use